Iris Gas — 3FIH9 — position and weather

sailwx.info

Track history (hours):
 
Tides and Currents Weather Stations Pressure Air Temp Water Temp Dewpoint Dewpoint Depression Visibility Wind Speed Wind Dir Waves Ship Positions

Iris Gas

Last reported at 2018-Jun-19 10:30 UTC. Time now 2018-Jun-19 10:38 UTC.
Position N 38°02' E 023°32'.

; draft 4.8 m.

Type: Tanker. MMSI: 353846000.

Date/timePositionNaut miles runAvg speedWind from/ knotsBaromVisibWave heightAir tempDewpointWater temp
2018-Jun-19 10:30N 38°02' E 023°32'0 0.0
2018-Jun-19 10:00N 38°02' E 023°32'0 0.0
2018-Jun-19 09:27N 38°02' E 023°32'0 0.0
2018-Jun-19 09:00N 38°02' E 023°32'0 0.0
2018-Jun-19 08:30N 38°02' E 023°32'0 0.0
2018-Jun-19 08:00N 38°02' E 023°32'0 0.1
2018-Jun-19 07:30N 38°02' E 023°32'0 0.0
2018-Jun-19 06:57N 38°02' E 023°32'0 0.0
2018-Jun-19 06:30N 38°02' E 023°32'0 0.0
2018-Jun-19 06:00N 38°02' E 023°32'0 0.0
2018-Jun-19 05:30N 38°02' E 023°32'0 0.0
2018-Jun-19 04:57N 38°02' E 023°32'0 0.0
2018-Jun-19 04:30N 38°02' E 023°32'0 0.0
2018-Jun-19 03:57N 38°02' E 023°32'0 0.0
2018-Jun-19 03:30N 38°02' E 023°32'0 0.0
2018-Jun-19 03:00N 38°02' E 023°32'0 0.0
2018-Jun-19 02:30N 38°02' E 023°32'0 0.0
2018-Jun-19 01:57N 38°02' E 023°32'0 0.1
2018-Jun-19 01:27N 38°02' E 023°32'0 0.0
2018-Jun-19 01:00N 38°02' E 023°32'0 0.0
2018-Jun-19 00:30N 38°02' E 023°32'0 0.0
2018-Jun-19 00:00N 38°02' E 023°32'0 0.0
2018-Jun-18 23:30N 38°02' E 023°32'0 0.0
2018-Jun-18 23:00N 38°02' E 023°32'0 0.0
2018-Jun-18 22:30N 38°02' E 023°32'0 0.0
2018-Jun-18 21:57N 38°02' E 023°32'0 0.0
2018-Jun-18 21:30N 38°02' E 023°32'0 0.0
2018-Jun-18 20:57N 38°02' E 023°32'0 0.0
2018-Jun-18 20:27N 38°02' E 023°32'0 0.0
2018-Jun-18 19:51N 38°02' E 023°32'0 0.0
2018-Jun-18 19:30N 38°02' E 023°32'0 0.1
2018-Jun-18 19:00N 38°02' E 023°32'0 0.1
2018-Jun-18 18:24N 38°02' E 023°32'0 0.1
2018-Jun-18 18:00N 38°02' E 023°32'0 0.0
2018-Jun-18 17:30N 38°02' E 023°32'0 0.0
2018-Jun-18 17:00N 38°02' E 023°32'0 0.0
2018-Jun-18 16:30N 38°02' E 023°32'0 0.1
2018-Jun-18 16:00N 38°02' E 023°32'0 0.0
2018-Jun-18 15:30N 38°02' E 023°32'0 0.1
2018-Jun-18 14:57N 38°02' E 023°32'0 0.0
2018-Jun-18 14:30N 38°02' E 023°32'0 0.0
2018-Jun-18 13:57N 38°02' E 023°32'0 0.0
2018-Jun-18 13:30N 38°02' E 023°32'0 0.1
2018-Jun-18 13:00N 38°02' E 023°32'0 0.3
2018-Jun-18 12:30N 38°02' E 023°32'0 0.0
2018-Jun-18 12:00N 38°02' E 023°32'0 0.0
2018-Jun-18 11:30N 38°02' E 023°32'0 0.0
2018-Jun-18 11:00N 38°02' E 023°32'0 0.1
2018-Jun-18 10:30N 38°02' E 023°32'0 0.1
2018-Jun-18 10:00N 38°02' E 023°32'0 0.0
2018-Jun-18 09:30N 38°02' E 023°32'0 0.1
2018-Jun-18 09:00N 38°02' E 023°32'0 0.1
2018-Jun-18 08:30N 38°02' E 023°32'0 0.0
2018-Jun-18 08:00N 38°02' E 023°32'0 0.1
2018-Jun-18 07:30N 38°02' E 023°32'0 0.6
2018-Jun-18 07:00N 38°02' E 023°31'4 7.4
2018-Jun-18 06:30N 37°58' E 023°33'3 6.9
2018-Jun-18 06:00N 37°55' E 023°34'2 3.7
2018-Jun-18 05:30N 37°53' E 023°35'0 0.4
2018-Jun-18 05:00N 37°53' E 023°35'0 0.3
2018-Jun-18 04:30N 37°54' E 023°35'0 0.5
2018-Jun-18 04:00N 37°53' E 023°36'3 5.1
2018-Jun-18 03:30N 37°52' E 023°38'4 8.6
2018-Jun-18 03:00N 37°48' E 023°41'611.3
2018-Jun-18 02:30N 37°43' E 023°44'408 8.8
2018-Jun-16 04:07N 34°29' E 031°08'111.4
2018-Jun-16 04:00N 34°29' E 031°09'611.2
2018-Jun-16 03:30N 34°27' E 031°16'611.4
2018-Jun-16 03:00N 34°26' E 031°22'2811.5
2018-Jun-16 00:32N 34°21' E 031°56'011.6
2018-Jun-16 00:31N 34°21' E 031°56'611.3
2018-Jun-15 23:59N 34°21' E 032°04'811.3
2018-Jun-15 23:19N 34°20' E 032°13'1111.4
2018-Jun-15 22:22N 34°20' E 032°26'2511.3
2018-Jun-15 20:08N 34°20' E 032°56'311.3
2018-Jun-15 19:50N 34°19' E 033°00'611.0
2018-Jun-15 19:18N 34°20' E 033°08'410.9
2018-Jun-15 18:56N 34°20' E 033°12'610.8
2018-Jun-15 18:24N 34°20' E 033°19'711.1
2018-Jun-15 17:43N 34°22' E 033°28'4910.8
2018-Jun-15 13:10N 34°52' E 034°16'210.6
2018-Jun-15 13:00N 34°53' E 034°17'910.6
2018-Jun-15 12:09N 34°58' E 034°26'  
Track history (hours):
 
Tides and Currents Weather Stations Pressure Air Temp Water Temp Dewpoint Dewpoint Depression Visibility Wind Speed Wind Dir Waves Ship Positions

Iris Gas

Last reported at 2018-Jun-19 10:30 UTC. Time now 2018-Jun-19 10:38 UTC.
Position N 38°02' E 023°32'.

; draft 4.8 m.

Type: Tanker. MMSI: 353846000.

Date/timePositionNaut miles runAvg speedWind from/ knotsBaromVisibWave heightAir tempDewpointWater temp
2018-Jun-19 10:30N 38°02' E 023°32'0 0.0
2018-Jun-19 10:00N 38°02' E 023°32'0 0.0
2018-Jun-19 09:27N 38°02' E 023°32'0 0.0
2018-Jun-19 09:00N 38°02' E 023°32'0 0.0
2018-Jun-19 08:30N 38°02' E 023°32'0 0.0
2018-Jun-19 08:00N 38°02' E 023°32'0 0.1
2018-Jun-19 07:30N 38°02' E 023°32'0 0.0
2018-Jun-19 06:57N 38°02' E 023°32'0 0.0
2018-Jun-19 06:30N 38°02' E 023°32'0 0.0
2018-Jun-19 06:00N 38°02' E 023°32'0 0.0
2018-Jun-19 05:30N 38°02' E 023°32'0 0.0
2018-Jun-19 04:57N 38°02' E 023°32'0 0.0
2018-Jun-19 04:30N 38°02' E 023°32'0 0.0
2018-Jun-19 03:57N 38°02' E 023°32'0 0.0
2018-Jun-19 03:30N 38°02' E 023°32'0 0.0
2018-Jun-19 03:00N 38°02' E 023°32'0 0.0
2018-Jun-19 02:30N 38°02' E 023°32'0 0.0
2018-Jun-19 01:57N 38°02' E 023°32'0 0.1
2018-Jun-19 01:27N 38°02' E 023°32'0 0.0
2018-Jun-19 01:00N 38°02' E 023°32'0 0.0
2018-Jun-19 00:30N 38°02' E 023°32'0 0.0
2018-Jun-19 00:00N 38°02' E 023°32'0 0.0
2018-Jun-18 23:30N 38°02' E 023°32'0 0.0
2018-Jun-18 23:00N 38°02' E 023°32'0 0.0
2018-Jun-18 22:30N 38°02' E 023°32'0 0.0
2018-Jun-18 21:57N 38°02' E 023°32'0 0.0
2018-Jun-18 21:30N 38°02' E 023°32'0 0.0
2018-Jun-18 20:57N 38°02' E 023°32'0 0.0
2018-Jun-18 20:27N 38°02' E 023°32'0 0.0
2018-Jun-18 19:51N 38°02' E 023°32'0 0.0
2018-Jun-18 19:30N 38°02' E 023°32'0 0.1
2018-Jun-18 19:00N 38°02' E 023°32'0 0.1
2018-Jun-18 18:24N 38°02' E 023°32'0 0.1
2018-Jun-18 18:00N 38°02' E 023°32'0 0.0
2018-Jun-18 17:30N 38°02' E 023°32'0 0.0
2018-Jun-18 17:00N 38°02' E 023°32'0 0.0
2018-Jun-18 16:30N 38°02' E 023°32'0 0.1
2018-Jun-18 16:00N 38°02' E 023°32'0 0.0
2018-Jun-18 15:30N 38°02' E 023°32'0 0.1
2018-Jun-18 14:57N 38°02' E 023°32'0 0.0
2018-Jun-18 14:30N 38°02' E 023°32'0 0.0
2018-Jun-18 13:57N 38°02' E 023°32'0 0.0
2018-Jun-18 13:30N 38°02' E 023°32'0 0.1
2018-Jun-18 13:00N 38°02' E 023°32'0 0.3
2018-Jun-18 12:30N 38°02' E 023°32'0 0.0
2018-Jun-18 12:00N 38°02' E 023°32'0 0.0
2018-Jun-18 11:30N 38°02' E 023°32'0 0.0
2018-Jun-18 11:00N 38°02' E 023°32'0 0.1
2018-Jun-18 10:30N 38°02' E 023°32'0 0.1
2018-Jun-18 10:00N 38°02' E 023°32'0 0.0
2018-Jun-18 09:30N 38°02' E 023°32'0 0.1
2018-Jun-18 09:00N 38°02' E 023°32'0 0.1
2018-Jun-18 08:30N 38°02' E 023°32'0 0.0
2018-Jun-18 08:00N 38°02' E 023°32'0 0.1
2018-Jun-18 07:30N 38°02' E 023°32'0 0.6
2018-Jun-18 07:00N 38°02' E 023°31'4 7.4
2018-Jun-18 06:30N 37°58' E 023°33'3 6.9
2018-Jun-18 06:00N 37°55' E 023°34'2 3.7
2018-Jun-18 05:30N 37°53' E 023°35'0 0.4
2018-Jun-18 05:00N 37°53' E 023°35'0 0.3
2018-Jun-18 04:30N 37°54' E 023°35'0 0.5
2018-Jun-18 04:00N 37°53' E 023°36'3 5.1
2018-Jun-18 03:30N 37°52' E 023°38'4 8.6
2018-Jun-18 03:00N 37°48' E 023°41'611.3
2018-Jun-18 02:30N 37°43' E 023°44'408 8.8
2018-Jun-16 04:07N 34°29' E 031°08'111.4
2018-Jun-16 04:00N 34°29' E 031°09'611.2
2018-Jun-16 03:30N 34°27' E 031°16'611.4
2018-Jun-16 03:00N 34°26' E 031°22'2811.5
2018-Jun-16 00:32N 34°21' E 031°56'011.6
2018-Jun-16 00:31N 34°21' E 031°56'611.3
2018-Jun-15 23:59N 34°21' E 032°04'811.3
2018-Jun-15 23:19N 34°20' E 032°13'1111.4
2018-Jun-15 22:22N 34°20' E 032°26'2511.3
2018-Jun-15 20:08N 34°20' E 032°56'311.3
2018-Jun-15 19:50N 34°19' E 033°00'611.0
2018-Jun-15 19:18N 34°20' E 033°08'410.9
2018-Jun-15 18:56N 34°20' E 033°12'610.8
2018-Jun-15 18:24N 34°20' E 033°19'711.1
2018-Jun-15 17:43N 34°22' E 033°28'4910.8
2018-Jun-15 13:10N 34°52' E 034°16'210.6
2018-Jun-15 13:00N 34°53' E 034°17'910.6
2018-Jun-15 12:09N 34°58' E 034°26'  

Dump ship's entire track history